createdAt,value
2022-08-20T00:01:25.625Z,8.00
2022-08-20T00:03:55.132Z,7.97
2022-08-20T00:06:25.531Z,7.68
2022-08-20T00:08:54.592Z,8.13
2022-08-20T00:11:26.167Z,8.43
2022-08-20T00:14:02.883Z,7.53
2022-08-20T00:16:36.633Z,8.60
2022-08-20T00:19:07.831Z,7.82
2022-08-20T00:21:37.813Z,8.32
2022-08-20T00:28:37.526Z,7.90
2022-08-20T00:31:11.214Z,8.38
2022-08-20T00:33:40.767Z,8.00
2022-08-20T00:36:13.126Z,7.95
2022-08-20T00:38:45.534Z,8.20
2022-08-20T00:41:19.664Z,8.20
2022-08-20T00:43:51.986Z,9.38
2022-08-20T00:52:42.094Z,9.27
2022-08-20T00:55:24.979Z,9.38
2022-08-20T00:58:01.841Z,9.77
2022-08-20T01:00:37.850Z,10.10
2022-08-20T01:03:09.934Z,9.65
2022-08-20T01:05:40.379Z,9.43
2022-08-20T01:08:09.885Z,10.75
2022-08-20T01:10:45.112Z,10.77
2022-08-20T01:13:20.722Z,10.88
2022-08-20T01:15:54.546Z,11.43
2022-08-20T01:18:27.409Z,10.85
2022-08-20T01:20:59.846Z,12.13
2022-08-20T01:44:52.914Z,14.70
2022-08-20T01:47:27.649Z,14.15
2022-08-20T01:49:59.902Z,14.90
2022-08-20T01:52:34.638Z,14.27
2022-08-20T01:55:05.456Z,15.20
2022-08-20T01:57:37.575Z,14.18
2022-08-20T02:00:19.044Z,15.38
2022-08-20T02:07:53.685Z,15.35
2022-08-20T02:10:24.255Z,14.52
2022-08-20T02:12:53.591Z,15.63
2022-08-20T02:15:34.643Z,15.63
2022-08-20T02:18:08.688Z,15.32
2022-08-20T02:20:40.163Z,16.92
2022-08-20T02:38:50.315Z,16.60
2022-08-20T02:41:21.597Z,16.48
2022-08-20T02:43:51.302Z,16.00
2022-08-20T02:46:20.743Z,16.30
2022-08-20T02:48:49.747Z,15.88
2022-08-20T02:51:30.544Z,14.65
2022-08-20T02:54:01.741Z,16.13
2022-08-20T02:56:31.193Z,15.10
2022-08-20T02:59:00.187Z,15.85
2022-08-20T03:01:31.057Z,15.88
2022-08-20T03:04:00.232Z,15.88
2022-08-20T03:06:29.777Z,16.40
2022-08-20T03:09:00.870Z,15.90
2022-08-20T03:16:31.024Z,16.95
2022-08-20T03:19:00.196Z,16.98
2022-08-20T03:21:29.296Z,17.45
2022-08-20T03:29:41.938Z,16.50
2022-08-20T03:32:11.038Z,17.20
2022-08-20T03:34:40.318Z,17.23
2022-08-20T03:37:11.634Z,17.20
2022-08-20T03:39:41.126Z,16.05
2022-08-20T03:42:10.381Z,17.75
2022-08-20T03:44:39.520Z,17.52
2022-08-20T03:47:10.120Z,17.08
2022-08-20T03:49:39.293Z,18.02
2022-08-20T03:52:08.701Z,16.23
2022-08-20T03:54:38.277Z,17.98
2022-08-20T03:57:12.972Z,18.05
2022-08-20T03:59:44.545Z,17.88
2022-08-20T04:02:14.937Z,18.85
2022-08-20T04:04:44.164Z,17.70
2022-08-20T04:07:15.354Z,18.77
2022-08-20T04:09:44.822Z,18.95
2022-08-20T04:12:14.319Z,19.27
2022-08-20T04:14:44.191Z,19.50
2022-08-20T04:17:15.287Z,19.08
2022-08-20T04:19:45.528Z,18.33
2022-08-20T04:22:14.997Z,19.70
2022-08-20T04:24:44.843Z,18.25
2022-08-20T04:32:18.200Z,17.70
2022-08-20T04:34:50.042Z,18.05
2022-08-20T04:37:22.411Z,18.40
2022-08-20T04:44:54.005Z,18.67
2022-08-20T04:52:40.888Z,15.90
2022-08-20T04:55:12.103Z,18.60
2022-08-20T04:57:41.416Z,18.70
2022-08-20T05:00:15.241Z,19.50
2022-08-20T05:23:49.433Z,20.77
2022-08-20T05:31:12.320Z,21.92
2022-08-20T05:33:41.536Z,22.17
2022-08-20T05:36:10.601Z,21.33
2022-08-20T05:38:44.860Z,21.10
2022-08-20T05:41:28.462Z,23.23
2022-08-20T05:44:01.955Z,23.08
2022-08-20T05:46:32.317Z,25.77
2022-08-20T05:49:02.490Z,23.65
2022-08-20T05:51:32.424Z,24.13
2022-08-20T05:54:01.984Z,23.50
2022-08-20T05:56:33.094Z,23.38
2022-08-20T05:59:04.916Z,24.58
2022-08-20T06:01:36.378Z,25.13
2022-08-20T06:04:23.982Z,24.80
2022-08-20T06:11:48.452Z,25.05
2022-08-20T06:14:19.139Z,24.27
2022-08-20T06:16:57.354Z,24.17
2022-08-20T06:19:32.495Z,23.40
2022-08-20T06:22:02.464Z,25.45
2022-08-20T06:24:46.688Z,25.17
2022-08-20T06:32:40.259Z,22.13
2022-08-20T06:35:11.562Z,22.85
2022-08-20T06:37:41.446Z,22.23
2022-08-20T06:40:14.678Z,23.08
2022-08-20T06:42:48.626Z,22.35
2022-08-20T06:45:24.506Z,22.13
2022-08-20T06:47:58.063Z,21.55
2022-08-20T06:50:31.194Z,20.38
2022-08-20T06:53:01.311Z,20.85
2022-08-20T06:55:30.719Z,19.98
2022-08-20T06:58:01.395Z,18.83
2022-08-20T07:00:32.951Z,18.40
2022-08-20T07:03:04.398Z,17.38
2022-08-20T07:05:37.397Z,17.48
2022-08-20T07:08:07.373Z,16.92
2022-08-20T07:10:36.442Z,16.35
2022-08-20T07:13:06.484Z,15.30
2022-08-20T07:15:35.963Z,14.32
2022-08-20T07:18:08.023Z,14.77
2022-08-20T07:20:40.522Z,13.45
2022-08-20T07:23:12.171Z,13.13
2022-08-20T07:25:42.908Z,12.60
2022-08-20T07:38:58.469Z,11.05
2022-08-20T07:41:27.860Z,9.02
2022-08-20T07:43:57.069Z,9.38
2022-08-20T07:46:31.132Z,8.50
2022-08-20T07:49:01.427Z,8.07
2022-08-20T07:51:30.742Z,9.15
2022-08-20T07:54:01.025Z,8.73
2022-08-20T07:56:30.320Z,7.90
2022-08-20T07:59:01.632Z,9.50
2022-08-20T08:01:33.357Z,8.32
2022-08-20T08:04:02.684Z,7.80
2022-08-20T08:06:33.157Z,8.10
2022-08-20T08:09:06.914Z,8.40
2022-08-20T08:26:22.528Z,9.20
2022-08-20T08:28:51.700Z,8.68
2022-08-20T08:31:20.831Z,9.30
2022-08-20T08:42:26.120Z,10.45
2022-08-20T08:44:55.662Z,9.23
2022-08-20T08:47:34.696Z,9.35
2022-08-20T08:50:05.642Z,9.75
2022-08-20T08:52:41.115Z,9.82
2022-08-20T08:55:19.560Z,9.65
2022-08-20T08:57:51.201Z,11.10
2022-08-20T09:00:23.226Z,10.15
2022-08-20T09:02:59.441Z,10.45
2022-08-20T09:05:36.675Z,10.30
2022-08-20T09:08:16.320Z,9.68
2022-08-20T09:10:46.398Z,11.02
2022-08-20T09:18:20.124Z,10.60
2022-08-20T09:20:49.493Z,9.85
2022-08-20T09:23:18.438Z,9.55
2022-08-20T09:25:47.499Z,10.05
2022-08-20T09:32:52.358Z,8.90
2022-08-20T09:35:22.982Z,9.10
2022-08-20T09:37:52.839Z,9.40
2022-08-20T09:40:22.835Z,9.18
2022-08-20T09:42:52.443Z,8.43
2022-08-20T09:45:22.404Z,8.20
2022-08-20T09:47:55.106Z,8.55
2022-08-20T09:50:45.520Z,9.20
2022-08-20T09:53:16.134Z,9.82
2022-08-20T09:55:46.783Z,9.05
2022-08-20T10:02:46.337Z,9.40
2022-08-20T10:05:16.248Z,9.45
2022-08-20T10:07:46.905Z,9.88
2022-08-20T10:10:17.274Z,9.35
2022-08-20T10:12:50.516Z,10.98
2022-08-20T10:15:22.170Z,9.82
2022-08-20T10:17:51.430Z,11.57
2022-08-20T10:20:20.677Z,11.45
2022-08-20T10:22:51.359Z,10.57
2022-08-20T10:25:20.684Z,11.75
2022-08-20T10:32:21.519Z,10.50
2022-08-20T10:34:50.740Z,10.25
2022-08-20T10:37:23.972Z,10.40
2022-08-20T10:39:55.238Z,9.52
2022-08-20T10:42:24.412Z,9.65
2022-08-20T10:44:53.627Z,9.82
2022-08-20T10:47:25.186Z,9.73
2022-08-20T10:49:56.888Z,9.30
2022-08-20T10:52:26.914Z,9.18
2022-08-20T10:54:58.029Z,9.07
2022-08-20T10:57:29.834Z,9.55
2022-08-20T11:00:01.285Z,9.52
2022-08-20T11:02:34.261Z,10.10
2022-08-20T11:05:04.194Z,8.88
2022-08-20T11:07:55.060Z,8.90
2022-08-20T11:10:29.196Z,8.85
2022-08-20T11:12:58.663Z,8.45
2022-08-20T11:15:28.068Z,8.80
2022-08-20T11:17:57.814Z,9.02
2022-08-20T11:20:28.102Z,8.68
2022-08-20T11:22:57.305Z,9.38
2022-08-20T11:25:28.588Z,8.18
2022-08-20T11:27:58.933Z,8.90
2022-08-20T11:30:32.799Z,8.77
2022-08-20T11:33:03.718Z,9.32
2022-08-20T11:35:48.289Z,9.23
2022-08-20T11:38:19.780Z,8.80
2022-08-20T11:40:50.310Z,8.65
2022-08-20T11:43:19.715Z,8.57
2022-08-20T11:45:51.294Z,10.13
2022-08-20T11:48:21.020Z,9.20
2022-08-20T11:50:51.682Z,8.98
2022-08-20T11:53:22.211Z,10.05
2022-08-20T11:55:53.188Z,9.93
2022-08-20T11:58:22.368Z,10.35
2022-08-20T12:00:51.651Z,9.98
2022-08-20T12:03:20.856Z,10.20
2022-08-20T12:05:50.064Z,10.27
2022-08-20T12:08:27.049Z,10.82
2022-08-20T12:11:00.900Z,11.02
2022-08-20T12:13:47.323Z,12.20
2022-08-20T12:16:19.423Z,10.63
2022-08-20T12:18:49.831Z,10.32
2022-08-20T12:21:19.296Z,10.85
2022-08-20T12:23:48.798Z,10.38
2022-08-20T12:26:19.445Z,10.55
2022-08-20T12:28:48.846Z,11.70
2022-08-20T12:31:17.885Z,11.63
2022-08-20T12:33:46.819Z,14.00
2022-08-20T12:36:16.132Z,20.50
2022-08-20T12:38:45.564Z,22.42
2022-08-20T12:41:14.513Z,22.13
2022-08-20T12:43:45.197Z,24.05
2022-08-20T12:46:14.209Z,23.85
2022-08-20T12:48:43.151Z,24.65
2022-08-20T12:51:12.324Z,23.65
2022-08-20T12:53:41.263Z,23.65
2022-08-20T12:56:10.788Z,24.42
2022-08-20T12:58:39.963Z,29.70
2022-08-20T13:01:10.448Z,30.05
2022-08-20T13:03:43.163Z,30.45
2022-08-20T13:06:14.457Z,16.88
2022-08-20T13:08:43.591Z,11.48
2022-08-20T13:11:12.728Z,8.15
2022-08-20T13:13:43.934Z,10.70
2022-08-20T13:16:14.450Z,15.88
2022-08-20T13:18:43.939Z,13.18
2022-08-20T13:21:13.011Z,16.77
2022-08-20T13:23:42.047Z,17.42
2022-08-20T13:26:11.478Z,16.33
2022-08-20T13:28:40.516Z,14.68
2022-08-20T13:31:09.520Z,15.93
2022-08-20T13:33:40.168Z,14.65
2022-08-20T13:36:09.805Z,10.68
2022-08-20T13:38:39.113Z,11.88
2022-08-20T13:41:08.389Z,11.75
2022-08-20T13:43:37.632Z,10.35
2022-08-20T13:46:06.995Z,11.00
2022-08-20T13:48:36.281Z,18.35
2022-08-20T13:51:07.113Z,20.42
2022-08-20T13:53:36.672Z,21.63
2022-08-20T13:56:06.110Z,22.80
2022-08-20T13:58:35.160Z,23.25
2022-08-20T14:01:04.484Z,22.27
2022-08-20T14:03:35.105Z,23.23
2022-08-20T14:06:06.666Z,23.55
2022-08-20T14:08:36.196Z,23.63
2022-08-20T14:11:05.603Z,23.75
2022-08-20T14:13:34.715Z,24.25
2022-08-20T14:16:04.110Z,23.23
2022-08-20T14:18:34.372Z,23.20
2022-08-20T14:21:03.525Z,22.88
2022-08-20T14:23:36.151Z,22.52
2022-08-20T14:26:06.443Z,22.55
2022-08-20T14:28:35.870Z,21.83
2022-08-20T14:31:04.963Z,21.08
2022-08-20T14:33:36.052Z,19.83
2022-08-20T14:36:06.530Z,19.38
2022-08-20T14:38:38.922Z,18.83
2022-08-20T14:41:08.413Z,18.10
2022-08-20T14:43:37.416Z,19.05
2022-08-20T14:46:08.525Z,19.88
2022-08-20T14:48:37.816Z,18.77
2022-08-20T14:51:09.920Z,18.80
2022-08-20T14:53:40.814Z,18.20
2022-08-20T14:56:10.046Z,18.13
2022-08-20T14:58:39.166Z,18.48
2022-08-20T15:01:08.675Z,16.98
2022-08-20T15:03:37.813Z,16.73
2022-08-20T15:06:20.391Z,17.23
2022-08-20T15:08:52.900Z,18.02
2022-08-20T15:11:22.765Z,17.30
2022-08-20T15:13:54.251Z,17.98
2022-08-20T15:16:23.714Z,17.85
2022-08-20T15:18:58.142Z,17.65
2022-08-20T15:21:29.259Z,18.63
2022-08-20T15:24:18.993Z,20.08
2022-08-20T15:29:23.334Z,19.73
2022-08-20T15:31:53.206Z,20.60
2022-08-20T15:34:22.719Z,20.73
2022-08-20T15:36:51.646Z,21.77
2022-08-20T15:39:22.134Z,19.80
2022-08-20T15:41:51.603Z,20.17
2022-08-20T15:44:20.646Z,19.42
2022-08-20T15:46:49.721Z,19.52
2022-08-20T15:49:19.282Z,20.80
2022-08-20T15:51:50.734Z,21.10
2022-08-20T15:54:25.195Z,19.73
2022-08-20T15:57:03.931Z,19.30
2022-08-20T15:59:50.120Z,19.02
2022-08-20T16:02:40.865Z,16.58
2022-08-20T16:05:20.617Z,16.92
2022-08-20T16:08:00.978Z,17.90
2022-08-20T16:10:41.342Z,16.85
2022-08-20T16:13:21.535Z,16.80
2022-08-20T16:15:56.268Z,16.80
2022-08-20T16:18:31.034Z,16.58
2022-08-20T16:21:03.818Z,17.02
2022-08-20T16:23:37.371Z,17.98
2022-08-20T16:26:20.616Z,17.15
2022-08-20T16:28:59.279Z,18.40
2022-08-20T16:31:35.428Z,18.15
2022-08-20T16:34:32.360Z,16.77
2022-08-20T16:37:12.176Z,15.27
2022-08-20T16:39:49.746Z,15.68
2022-08-20T16:42:25.017Z,16.73
2022-08-20T16:44:56.501Z,16.15
2022-08-20T16:47:30.715Z,16.15
2022-08-20T16:50:03.674Z,14.75
2022-08-20T16:52:33.802Z,16.15
2022-08-20T16:55:03.032Z,15.75
2022-08-20T16:57:34.590Z,15.85
2022-08-20T17:00:12.019Z,16.90
2022-08-20T17:02:54.486Z,18.33
2022-08-20T17:05:26.366Z,17.08
2022-08-20T17:08:04.971Z,18.17
2022-08-20T17:10:37.533Z,16.08
2022-08-20T17:13:23.504Z,16.02
2022-08-20T17:15:59.913Z,15.32
2022-08-20T17:18:31.476Z,15.00
2022-08-20T17:21:06.073Z,15.38
2022-08-20T17:23:54.582Z,16.08
2022-08-20T17:26:32.743Z,15.98
2022-08-20T17:29:12.891Z,15.75
2022-08-20T17:31:45.900Z,15.65
2022-08-20T17:34:17.282Z,15.23
2022-08-20T17:36:54.717Z,16.25
2022-08-20T17:39:25.814Z,16.58
2022-08-20T17:42:04.307Z,17.67
2022-08-20T17:44:38.753Z,17.25
2022-08-20T17:47:13.689Z,17.02
2022-08-20T17:50:00.476Z,17.08
2022-08-20T17:52:42.902Z,16.95
2022-08-20T17:55:13.866Z,17.27
2022-08-20T17:57:47.348Z,17.35
2022-08-20T18:00:28.601Z,17.58
2022-08-20T18:03:02.195Z,15.75
2022-08-20T18:05:36.404Z,18.08
2022-08-20T18:08:18.028Z,18.05
2022-08-20T18:10:57.512Z,18.10
2022-08-20T18:13:44.996Z,18.38
2022-08-20T18:16:27.338Z,19.33
2022-08-20T18:19:03.801Z,19.95
2022-08-20T18:21:57.487Z,19.70
2022-08-20T18:24:31.382Z,19.75
2022-08-20T18:27:03.847Z,20.42
2022-08-20T18:29:42.345Z,20.73
2022-08-20T18:32:29.627Z,22.08
2022-08-20T18:35:11.092Z,21.75
2022-08-20T18:37:41.096Z,25.15
2022-08-20T18:40:23.611Z,24.00
2022-08-20T18:42:52.910Z,25.08
2022-08-20T18:45:35.617Z,24.63
2022-08-20T18:48:07.839Z,24.75
2022-08-20T18:50:48.951Z,25.33
2022-08-20T18:53:21.759Z,25.77
2022-08-20T18:56:03.754Z,25.42
2022-08-20T18:58:35.611Z,25.23
2022-08-20T19:01:13.005Z,25.10
2022-08-20T19:03:48.500Z,24.55
2022-08-20T19:06:40.460Z,24.45
2022-08-20T19:09:19.072Z,22.80
2022-08-20T19:12:12.839Z,23.67
2022-08-20T19:15:07.445Z,24.00
2022-08-20T19:18:03.733Z,23.40
2022-08-20T19:20:38.263Z,23.77
2022-08-20T19:23:10.398Z,23.38
2022-08-20T19:25:44.662Z,24.02
2022-08-20T19:28:24.337Z,23.25
2022-08-20T19:30:54.095Z,22.80
2022-08-20T19:33:32.733Z,24.23
2022-08-20T19:36:19.390Z,24.02
2022-08-20T19:38:53.791Z,24.50
2022-08-20T19:41:31.163Z,24.52
2022-08-20T19:44:01.711Z,24.02
2022-08-20T19:46:35.217Z,26.15
2022-08-20T19:49:18.309Z,22.65
2022-08-20T19:52:02.084Z,25.10
2022-08-20T19:54:32.207Z,25.17
2022-08-20T19:57:06.230Z,25.25
2022-08-20T19:59:36.381Z,25.42
2022-08-20T20:02:20.622Z,24.38
2022-08-20T20:04:55.446Z,24.05
2022-08-20T20:07:36.894Z,24.88
2022-08-20T20:10:09.809Z,24.67
2022-08-20T20:12:42.691Z,25.25
2022-08-20T20:15:12.519Z,25.15
2022-08-20T20:17:43.255Z,24.92
2022-08-20T20:20:29.462Z,25.13
2022-08-20T20:23:06.873Z,24.67
2022-08-20T20:25:43.366Z,24.08
2022-08-20T20:28:18.310Z,24.08
2022-08-20T20:30:49.531Z,24.83
2022-08-20T20:33:23.935Z,25.05
2022-08-20T20:36:06.132Z,24.83
2022-08-20T20:38:39.424Z,24.20
2022-08-20T20:41:21.808Z,24.35
2022-08-20T20:44:02.404Z,23.10
2022-08-20T20:46:34.672Z,24.55
2022-08-20T20:49:16.909Z,23.52
2022-08-20T20:51:58.776Z,25.30
2022-08-20T20:54:40.702Z,25.38
2022-08-20T20:57:36.297Z,24.60
2022-08-20T21:00:12.750Z,25.42
2022-08-20T21:02:45.571Z,25.27
2022-08-20T21:05:17.309Z,25.02
2022-08-20T21:07:50.644Z,24.92
2022-08-20T21:10:23.872Z,25.45
2022-08-20T21:12:53.637Z,26.42
2022-08-20T21:15:25.084Z,25.20
2022-08-20T21:17:55.187Z,23.90
2022-08-20T21:20:24.802Z,24.75
2022-08-20T21:22:54.192Z,24.58
2022-08-20T21:25:25.578Z,24.27
2022-08-20T21:27:55.992Z,24.35
2022-08-20T21:30:27.019Z,24.15
2022-08-20T21:32:56.706Z,24.92
2022-08-20T21:35:26.561Z,24.95
2022-08-20T21:37:55.831Z,24.25
2022-08-20T21:40:28.301Z,23.58
2022-08-20T21:42:58.036Z,21.85
2022-08-20T21:45:28.664Z,22.58
2022-08-20T21:47:58.363Z,21.77
2022-08-20T21:50:28.860Z,23.65
2022-08-20T21:52:59.871Z,21.63
2022-08-20T21:55:39.287Z,21.92
2022-08-20T21:58:10.243Z,20.63
2022-08-20T22:00:54.865Z,21.67
2022-08-20T22:03:25.741Z,20.77
2022-08-20T22:05:54.993Z,22.52
2022-08-20T22:08:28.390Z,20.55
2022-08-20T22:11:01.333Z,21.05
2022-08-20T22:13:33.273Z,20.48
2022-08-20T22:16:04.521Z,20.95
2022-08-20T22:18:34.303Z,21.88
2022-08-20T22:21:03.872Z,20.63
2022-08-20T22:23:32.975Z,21.48
2022-08-20T22:26:03.556Z,21.95
2022-08-20T22:28:32.855Z,22.50
2022-08-20T22:31:02.139Z,21.05
2022-08-20T22:33:32.408Z,21.13
2022-08-20T22:36:03.073Z,20.45
2022-08-20T22:38:32.133Z,21.48
2022-08-20T22:41:07.588Z,21.88
2022-08-20T22:43:55.605Z,23.75
2022-08-20T22:46:27.349Z,21.95
2022-08-20T22:48:57.057Z,21.67
2022-08-20T22:51:35.481Z,22.70
2022-08-20T22:54:11.509Z,22.35
2022-08-20T22:56:42.070Z,21.48
2022-08-20T22:59:13.513Z,20.75
2022-08-20T23:01:46.899Z,19.98
2022-08-20T23:04:22.932Z,20.05
2022-08-20T23:06:52.177Z,20.65
2022-08-20T23:09:21.637Z,19.35
2022-08-20T23:11:52.359Z,20.50
2022-08-20T23:14:21.719Z,18.33
2022-08-20T23:16:59.499Z,19.00
2022-08-20T23:19:28.701Z,19.65
2022-08-20T23:21:58.063Z,19.83
2022-08-20T23:24:27.154Z,20.13
2022-08-20T23:26:57.979Z,18.70
2022-08-20T23:29:27.738Z,19.35
2022-08-20T23:31:58.380Z,17.92
2022-08-20T23:34:28.279Z,17.42
2022-08-20T23:36:59.526Z,17.17
2022-08-20T23:39:29.585Z,17.80
2022-08-20T23:42:01.470Z,16.67
2022-08-20T23:44:30.812Z,15.65
2022-08-20T23:47:03.128Z,15.05
2022-08-20T23:49:33.122Z,16.75
2022-08-20T23:52:03.084Z,15.30
2022-08-20T23:54:33.931Z,14.65
2022-08-20T23:57:08.082Z,14.68
2022-08-20T23:59:39.008Z,15.27
